ADDS METAR Data INFO
IDs: Format: Raw Decoded Include TAF

Data at: 0420 UTC 18 Jan 2018

Region: TOP
KATL 180352Z 32015KT 10SM CLR M07/M13 A3039 RMK AO2 SLP308 T10671128

KBOS 180418Z 30009KT 9SM SCT007 BKN015 OVC028 00/M02 A3006 RMK AO2 SNE17 P0000 T00001017

KBWI 180354Z 29007KT 10SM FEW075 SCT200 M07/M14 A3028 RMK AO2 SLP257 T10721139

KCLE 180351Z 21011KT 10SM FEW110 M09/M14 A3030 RMK AO2 SLP275 T10941139

KCLT 180352Z 34006KT 10SM FEW055 SCT250 M07/M12 A3032 RMK AO2 SLP274 T10721117

KCVG 180352Z 23008KT 9SM SCT150 M11/M13 A3043 RMK AO2 SLP320 T11061128

KDCA 180352Z 33016KT 10SM BKN075 M06/M14 A3031 RMK AO2 SLP264 T10611139

KDEN 180353Z 17011KT 10SM CLR M04/M09 A3024 RMK AO2 SLP268 T10391089

KDFW 180353Z 19006KT 10SM CLR M04/M14 A3059 RMK AO2 SLP365 T10391139 $

KDTW 180353Z 23016KT 10SM BKN150 M08/M13 A3019 RMK AO2 PK WND 23027/0339 SLP236 T10831128 $

KEWR 180351Z 33013G19KT 10SM FEW025 SCT190 M06/M13 A3019 RMK AO2 SLP223 T10561128

KFLL 180353Z 32011G18KT 10SM OVC250 13/11 A3023 RMK AO2 SLP235 T01330106

KIAD 180352Z 32016G20KT 10SM OVC080 M08/M15 A3030 RMK AO2 SLP266 BINOVC T10781150

KIAH 180353Z 01004KT 10SM FEW250 M03/M08 A3064 RMK AO2 SLP376 T10331083 $

KJFK 180351Z 32013KT 10SM BKN022 M04/M09 A3018 RMK AO2 SLP219 T10441094 $

KLAS 180356Z 22003KT 10SM FEW180 BKN220 13/04 A3023 RMK AO2 SLP233 T01330039

KLAX 180353Z 26004KT 10SM CLR 17/14 A3010 RMK AO2 SLP192 T01670139 $

KLGA 180351Z 33011KT 10SM BKN023 M04/M11 A3017 RMK AO2 SLP216 T10441111

KMCO 180353Z 32012G21KT 10SM FEW250 06/M02 A3032 RMK AO2 SLP268 T00611017

KMDW 180353Z 25018G25KT 10SM SCT150 SCT250 M07/M12 A3027 RMK AO2 SLP269 T10721122

KMEM 180354Z 00000KT 10SM CLR M09/M12 A3061 RMK AO2 SLP372 T10891122 $

KMIA 180353Z 34010G20KT 10SM BKN250 15/10 A3024 RMK AO2 SLP241 T01500100

KMSP 180353Z 24007KT 10SM CLR M03/M08 A3004 RMK AO2 SLP189 T10331083

KORD 180351Z 23013KT 10SM FEW250 M08/M13 A3024 RMK AO2 SLP253 T10831133

KPDX 180412Z 10010KT 5SM -RA BR SCT009 BKN030 OVC045 08/08 A2985 RMK AO2 P0002 T00830083

KPHL 180354Z 31009KT 10SM FEW160 FEW220 M06/M13 A3025 RMK AO2 SLP242 T10561128

KPHX 180351Z 00000KT 10SM FEW130 SCT240 17/M02 A3016 RMK AO2 SLP204 T01671022

KPIT 180351Z 23008KT 10SM CLR M13/M16 A3031 RMK AO2 SLP299 T11331161

KSAN 180351Z 00000KT 7SM FEW005 FEW200 SCT250 17/11 A3012 RMK AO2 SLP197 T01720106

KSEA 180405Z 14008KT 2SM BR BKN006 BKN027 OVC070 10/09 A2975 RMK AO2 SFC VIS 4 RAE0357 P0000 T01000094

KSFO 180356Z 17003KT 5SM BR FEW150 12/11 A3015 RMK AO2 SLP210 T01220111

KSLC 180354Z 15006KT 10SM SCT170 BKN240 04/M01 A3033 RMK AO2 SLP277 T00391006

KSTL 180351Z 23006KT 10SM CLR M07/M13 A3049 RMK AO2 SLP346 T10721128

KTPA 180353Z 35010KT 10SM CLR 06/M01 A3036 RMK AO2 SLP281 T00611006